Bridgeport, Texas
Current Conditions -  °F | °C
As of 6:15 AM on Monday 24 Nov 2014 (Local Time) from KXBP Reporting Station
Clear Clear  
Wind Chill: 35°   Ceiling: Unl
Heat Index: 41°   Visibility: 10mi
Dew Point: 33°   Wind: 9mph
Humidity: 73%   Direction: 290°WNW
Pressure: 30"   Gusts: NA
Location:  33.21°N, 97.75°W
Report Text: KXBP 241215Z AUTO 29008KT 10SM CLR 05/01 A3000 RMK AO2 T00500005
Loading
Personal Weather Stations






























Interactive Weather Map New forecast layout! Learn more

10-Day Weather Forecast

Advertisements
Track Severe Weather on mobile